sensor_id;sensor_type;location;lat;lon;timestamp;pressure;altitude;pressure_sealevel;temperature;humidity
19112;BME280;9688;51.906;8.376;2022-09-12T00:02:28;100953.19;;;15.37;93.83
19112;BME280;9688;51.906;8.376;2022-09-12T00:05:33;100954.13;;;15.36;93.61
19112;BME280;9688;51.906;8.376;2022-09-12T00:08:39;100943.97;;;15.27;94.08
19112;BME280;9688;51.906;8.376;2022-09-12T00:11:45;100953.03;;;15.23;93.89
19112;BME280;9688;51.906;8.376;2022-09-12T00:14:49;100954.78;;;15.24;93.83
19112;BME280;9688;51.906;8.376;2022-09-12T00:17:54;100948.56;;;15.24;94.11
19112;BME280;9688;51.906;8.376;2022-09-12T00:21:01;100949.59;;;15.21;93.83
19112;BME280;9688;51.906;8.376;2022-09-12T00:24:09;100948.06;;;15.17;94.03
19112;BME280;9688;51.906;8.376;2022-09-12T00:27:13;100948.22;;;15.14;93.63
19112;BME280;9688;51.906;8.376;2022-09-12T00:30:18;100943.97;;;15.10;93.77
19112;BME280;9688;51.906;8.376;2022-09-12T00:33:22;100948.38;;;15.11;94.19
19112;BME280;9688;51.906;8.376;2022-09-12T00:36:27;100944.13;;;15.07;93.82
19112;BME280;9688;51.906;8.376;2022-09-12T00:39:33;100941.56;;;15.05;94.42
19112;BME280;9688;51.906;8.376;2022-09-12T00:42:38;100942.50;;;15.04;94.17
19112;BME280;9688;51.906;8.376;2022-09-12T00:45:43;100939.06;;;15.02;94.40
19112;BME280;9688;51.906;8.376;2022-09-12T00:48:49;100945.47;;;14.98;93.91
19112;BME280;9688;51.906;8.376;2022-09-12T00:51:58;100939.53;;;14.93;94.37
19112;BME280;9688;51.906;8.376;2022-09-12T00:55:08;100938.75;;;14.91;94.27
19112;BME280;9688;51.906;8.376;2022-09-12T00:58:16;100939.84;;;14.87;94.77
19112;BME280;9688;51.906;8.376;2022-09-12T01:01:23;100949.69;;;14.85;94.63
19112;BME280;9688;51.906;8.376;2022-09-12T01:04:28;100944.53;;;14.82;94.75
19112;BME280;9688;51.906;8.376;2022-09-12T01:07:34;100942.88;;;14.79;94.55
19112;BME280;9688;51.906;8.376;2022-09-12T01:10:41;100934.22;;;14.76;94.92
19112;BME280;9688;51.906;8.376;2022-09-12T01:13:45;100929.03;;;14.72;94.72
19112;BME280;9688;51.906;8.376;2022-09-12T01:16:51;100933.56;;;14.70;94.98
19112;BME280;9688;51.906;8.376;2022-09-12T01:27:35;100929.44;;;14.65;95.09
19112;BME280;9688;51.906;8.376;2022-09-12T01:30:46;100915.97;;;14.68;94.85
19112;BME280;9688;51.906;8.376;2022-09-12T01:34:02;100913.41;;;14.66;94.74
19112;BME280;9688;51.906;8.376;2022-09-12T01:37:15;100916.06;;;14.66;94.52
19112;BME280;9688;51.906;8.376;2022-09-12T01:40:30;100909.94;;;14.64;94.67
19112;BME280;9688;51.906;8.376;2022-09-12T01:43:40;100914.56;;;14.61;94.85
19112;BME280;9688;51.906;8.376;2022-09-12T01:46:54;100911.97;;;14.59;94.71
19112;BME280;9688;51.906;8.376;2022-09-12T01:50:06;100907.59;;;14.58;94.52
19112;BME280;9688;51.906;8.376;2022-09-12T01:53:14;100897.97;;;14.56;94.51
19112;BME280;9688;51.906;8.376;2022-09-12T01:56:24;100900.78;;;14.53;94.38
19112;BME280;9688;51.906;8.376;2022-09-12T01:59:32;100896.50;;;14.48;94.29
19112;BME280;9688;51.906;8.376;2022-09-12T02:02:42;100897.53;;;14.46;94.36
19112;BME280;9688;51.906;8.376;2022-09-12T02:05:55;100888.00;;;14.42;94.41
19112;BME280;9688;51.906;8.376;2022-09-12T02:09:03;100888.91;;;14.41;94.17
19112;BME280;9688;51.906;8.376;2022-09-12T02:12:13;100885.50;;;14.39;94.67
19112;BME280;9688;51.906;8.376;2022-09-12T02:15:22;100882.09;;;14.35;94.32
19112;BME280;9688;51.906;8.376;2022-09-12T02:18:30;100884.00;;;14.33;94.39
19112;BME280;9688;51.906;8.376;2022-09-12T02:21:39;100890.22;;;14.32;94.43
19112;BME280;9688;51.906;8.376;2022-09-12T02:24:48;100891.25;;;14.29;94.58
19112;BME280;9688;51.906;8.376;2022-09-12T02:28:00;100888.91;;;14.23;94.99
19112;BME280;9688;51.906;8.376;2022-09-12T02:31:09;100889.84;;;14.22;95.01
19112;BME280;9688;51.906;8.376;2022-09-12T02:34:27;100892.56;;;14.21;95.09
19112;BME280;9688;51.906;8.376;2022-09-12T02:37:51;100885.53;;;14.20;94.92
19112;BME280;9688;51.906;8.376;2022-09-12T02:40:58;100890.69;;;14.23;94.78
19112;BME280;9688;51.906;8.376;2022-09-12T02:44:03;100882.78;;;14.21;94.74
19112;BME280;9688;51.906;8.376;2022-09-12T02:47:11;100880.22;;;14.20;95.16
19112;BME280;9688;51.906;8.376;2022-09-12T02:50:19;100881.38;;;14.14;95.04
19112;BME280;9688;51.906;8.376;2022-09-12T02:53:24;100875.28;;;14.12;95.12
19112;BME280;9688;51.906;8.376;2022-09-12T02:56:30;100875.28;;;14.12;95.03
19112;BME280;9688;51.906;8.376;2022-09-12T02:59:34;100874.41;;;14.12;94.95
19112;BME280;9688;51.906;8.376;2022-09-12T03:02:53;100874.41;;;14.12;95.20
19112;BME280;9688;51.906;8.376;2022-09-12T03:06:08;100867.28;;;14.12;95.02
19112;BME280;9688;51.906;8.376;2022-09-12T03:09:25;100869.09;;;14.12;94.75
19112;BME280;9688;51.906;8.376;2022-09-12T03:12:42;100875.38;;;14.11;94.98
19112;BME280;9688;51.906;8.376;2022-09-12T03:16:00;100873.63;;;14.10;94.52
19112;BME280;9688;51.906;8.376;2022-09-12T03:19:13;100859.69;;;14.04;94.88
19112;BME280;9688;51.906;8.376;2022-09-12T03:22:27;100867.91;;;14.00;95.05
19112;BME280;9688;51.906;8.376;2022-09-12T03:25:37;100864.75;;;13.92;94.99
19112;BME280;9688;51.906;8.376;2022-09-12T03:28:44;100860.75;;;13.83;95.63
19112;BME280;9688;51.906;8.376;2022-09-12T03:31:52;100858.47;;;13.75;95.66
19112;BME280;9688;51.906;8.376;2022-09-12T03:34:57;100858.53;;;13.74;95.69
19112;BME280;9688;51.906;8.376;2022-09-12T03:38:02;100856.66;;;13.76;95.73
19112;BME280;9688;51.906;8.376;2022-09-12T03:41:07;100853.00;;;13.78;95.62
19112;BME280;9688;51.906;8.376;2022-09-12T03:44:11;100852.84;;;13.81;95.38
19112;BME280;9688;51.906;8.376;2022-09-12T03:47:30;100849.25;;;13.82;95.36
19112;BME280;9688;51.906;8.376;2022-09-12T03:50:34;100853.69;;;13.82;95.33
19112;BME280;9688;51.906;8.376;2022-09-12T03:53:40;100856.59;;;13.77;95.61
19112;BME280;9688;51.906;8.376;2022-09-12T03:56:44;100861.13;;;13.75;95.66
19112;BME280;9688;51.906;8.376;2022-09-12T03:59:49;100856.81;;;13.73;95.55
19112;BME280;9688;51.906;8.376;2022-09-12T04:02:54;100851.50;;;13.73;95.68
19112;BME280;9688;51.906;8.376;2022-09-12T04:05:59;100854.16;;;13.73;95.59
19112;BME280;9688;51.906;8.376;2022-09-12T04:09:05;100865.63;;;13.73;95.22
19112;BME280;9688;51.906;8.376;2022-09-12T04:12:09;100862.97;;;13.73;95.62
19112;BME280;9688;51.906;8.376;2022-09-12T04:15:14;100864.84;;;13.71;95.27
19112;BME280;9688;51.906;8.376;2022-09-12T04:18:19;100865.84;;;13.69;95.40
19112;BME280;9688;51.906;8.376;2022-09-12T04:21:24;100854.50;;;13.65;95.50
19112;BME280;9688;51.906;8.376;2022-09-12T04:24:30;100853.00;;;13.59;95.41
19112;BME280;9688;51.906;8.376;2022-09-12T04:27:34;100861.81;;;13.60;95.62
19112;BME280;9688;51.906;8.376;2022-09-12T04:30:38;100858.25;;;13.61;95.78
19112;BME280;9688;51.906;8.376;2022-09-12T04:33:42;100860.13;;;13.59;95.60
19112;BME280;9688;51.906;8.376;2022-09-12T04:36:47;100856.91;;;13.52;95.71
19112;BME280;9688;51.906;8.376;2022-09-12T04:39:53;100851.72;;;13.49;95.86
19112;BME280;9688;51.906;8.376;2022-09-12T04:43:00;100863.22;;;13.50;96.19
19112;BME280;9688;51.906;8.376;2022-09-12T04:46:05;100856.97;;;13.51;95.79
19112;BME280;9688;51.906;8.376;2022-09-12T04:49:09;100862.22;;;13.52;95.70
19112;BME280;9688;51.906;8.376;2022-09-12T04:52:14;100856.91;;;13.52;95.69
19112;BME280;9688;51.906;8.376;2022-09-12T04:55:20;100858.63;;;13.53;95.44
19112;BME280;9688;51.906;8.376;2022-09-12T04:58:27;100850.66;;;13.53;95.57
19112;BME280;9688;51.906;8.376;2022-09-12T05:01:31;100855.00;;;13.54;95.69
19112;BME280;9688;51.906;8.376;2022-09-12T05:04:35;100851.50;;;13.54;95.59
19112;BME280;9688;51.906;8.376;2022-09-12T05:07:40;100855.09;;;13.53;95.56
19112;BME280;9688;51.906;8.376;2022-09-12T05:10:45;100853.34;;;13.52;95.64
19112;BME280;9688;51.906;8.376;2022-09-12T05:13:50;100847.19;;;13.51;95.67
19112;BME280;9688;51.906;8.376;2022-09-12T05:16:54;100852.44;;;13.53;95.13
19112;BME280;9688;51.906;8.376;2022-09-12T05:20:06;100844.47;;;13.53;95.21
19112;BME280;9688;51.906;8.376;2022-09-12T05:23:11;100852.22;;;13.57;95.31
19112;BME280;9688;51.906;8.376;2022-09-12T05:26:17;100847.69;;;13.59;95.20
19112;BME280;9688;51.906;8.376;2022-09-12T05:29:22;100853.72;;;13.63;95.03
19112;BME280;9688;51.906;8.376;2022-09-12T05:32:30;100844.69;;;13.67;95.13
19112;BME280;9688;51.906;8.376;2022-09-12T05:35:35;100849.69;;;13.73;95.04
19112;BME280;9688;51.906;8.376;2022-09-12T05:38:42;100838.69;;;13.81;95.14
19112;BME280;9688;51.906;8.376;2022-09-12T05:41:51;100849.72;;;13.91;94.97
19112;BME280;9688;51.906;8.376;2022-09-12T05:44:58;100845.75;;;13.99;94.89
19112;BME280;9688;51.906;8.376;2022-09-12T05:48:04;100839.22;;;14.06;94.56
19112;BME280;9688;51.906;8.376;2022-09-12T05:51:11;100838.69;;;14.17;94.40
19112;BME280;9688;51.906;8.376;2022-09-12T05:54:17;100836.50;;;14.25;94.73
19112;BME280;9688;51.906;8.376;2022-09-12T05:57:24;100841.28;;;14.36;94.35
19112;BME280;9688;51.906;8.376;2022-09-12T06:00:29;100844.25;;;14.47;94.16
19112;BME280;9688;51.906;8.376;2022-09-12T06:03:34;100842.97;;;14.56;94.07
19112;BME280;9688;51.906;8.376;2022-09-12T06:06:41;100837.25;;;14.64;93.88
19112;BME280;9688;51.906;8.376;2022-09-12T06:09:46;100844.56;;;14.76;93.48
19112;BME280;9688;51.906;8.376;2022-09-12T06:12:54;100842.22;;;14.87;93.25
19112;BME280;9688;51.906;8.376;2022-09-12T06:16:04;100845.44;;;14.94;92.96
19112;BME280;9688;51.906;8.376;2022-09-12T06:19:13;100829.28;;;14.97;92.52
19112;BME280;9688;51.906;8.376;2022-09-12T06:22:19;100823.78;;;15.00;92.47
19112;BME280;9688;51.906;8.376;2022-09-12T06:25:23;100825.50;;;15.01;92.78
19112;BME280;9688;51.906;8.376;2022-09-12T06:28:31;100827.06;;;15.05;92.57
19112;BME280;9688;51.906;8.376;2022-09-12T06:31:37;100828.38;;;15.14;92.21
19112;BME280;9688;51.906;8.376;2022-09-12T06:34:44;100832.41;;;15.21;92.04
19112;BME280;9688;51.906;8.376;2022-09-12T06:37:58;100829.59;;;15.24;92.27
19112;BME280;9688;51.906;8.376;2022-09-12T06:41:08;100834.41;;;15.33;92.04
19112;BME280;9688;51.906;8.376;2022-09-12T06:44:17;100833.84;;;15.44;91.93
19112;BME280;9688;51.906;8.376;2022-09-12T06:47:22;100835.81;;;15.56;91.24
19112;BME280;9688;51.906;8.376;2022-09-12T06:50:28;100835.22;;;15.67;90.72
19112;BME280;9688;51.906;8.376;2022-09-12T06:53:34;100826.53;;;15.79;91.07
19112;BME280;9688;51.906;8.376;2022-09-12T06:56:39;100830.50;;;15.88;90.78
19112;BME280;9688;51.906;8.376;2022-09-12T06:59:46;100820.94;;;16.00;90.32
19112;BME280;9688;51.906;8.376;2022-09-12T07:02:53;100827.47;;;16.10;89.53
19112;BME280;9688;51.906;8.376;2022-09-12T07:06:01;100825.88;;;16.22;89.26
19112;BME280;9688;51.906;8.376;2022-09-12T07:09:09;100824.88;;;16.39;88.81
19112;BME280;9688;51.906;8.376;2022-09-12T07:12:13;100821.28;;;16.54;88.81
19112;BME280;9688;51.906;8.376;2022-09-12T07:15:20;100819.78;;;16.64;88.68
19112;BME280;9688;51.906;8.376;2022-09-12T07:18:24;100820.41;;;16.84;87.91
19112;BME280;9688;51.906;8.376;2022-09-12T07:21:29;100824.72;;;17.01;87.53
19112;BME280;9688;51.906;8.376;2022-09-12T07:24:35;100829.38;;;17.11;87.72
19112;BME280;9688;51.906;8.376;2022-09-12T07:27:40;100830.72;;;17.19;86.80
19112;BME280;9688;51.906;8.376;2022-09-12T07:30:47;100828.91;;;17.33;86.26
19112;BME280;9688;51.906;8.376;2022-09-12T07:33:52;100837.66;;;17.50;86.20
19112;BME280;9688;51.906;8.376;2022-09-12T07:36:57;100834.88;;;17.66;85.24
19112;BME280;9688;51.906;8.376;2022-09-12T07:40:05;100837.31;;;17.83;84.44
19112;BME280;9688;51.906;8.376;2022-09-12T07:43:10;100845.75;;;18.04;84.09
19112;BME280;9688;51.906;8.376;2022-09-12T07:46:16;100836.41;;;18.24;83.45
19112;BME280;9688;51.906;8.376;2022-09-12T07:49:21;100833.66;;;18.38;83.04
19112;BME280;9688;51.906;8.376;2022-09-12T07:52:26;100828.22;;;18.53;82.75
19112;BME280;9688;51.906;8.376;2022-09-12T07:55:31;100823.41;;;18.70;82.35
19112;BME280;9688;51.906;8.376;2022-09-12T07:58:37;100827.63;;;18.87;81.65
19112;BME280;9688;51.906;8.376;2022-09-12T08:01:45;100828.25;;;19.04;81.17
19112;BME280;9688;51.906;8.376;2022-09-12T08:04:51;100826.78;;;19.12;80.69
19112;BME280;9688;51.906;8.376;2022-09-12T08:07:57;100828.97;;;19.31;80.15
19112;BME280;9688;51.906;8.376;2022-09-12T08:11:04;100838.28;;;19.51;79.44
19112;BME280;9688;51.906;8.376;2022-09-12T08:14:09;100835.03;;;19.72;79.16
19112;BME280;9688;51.906;8.376;2022-09-12T08:17:16;100824.53;;;19.93;78.81
19112;BME280;9688;51.906;8.376;2022-09-12T08:20:23;100821.53;;;20.09;77.99
19112;BME280;9688;51.906;8.376;2022-09-12T08:23:28;100833.03;;;20.11;77.86
19112;BME280;9688;51.906;8.376;2022-09-12T08:26:34;100833.53;;;20.16;77.68
19112;BME280;9688;51.906;8.376;2022-09-12T08:29:39;100837.03;;;20.29;77.32
19112;BME280;9688;51.906;8.376;2022-09-12T08:32:45;100838.75;;;20.41;76.61
19112;BME280;9688;51.906;8.376;2022-09-12T08:35:50;100826.25;;;20.53;76.58
19112;BME280;9688;51.906;8.376;2022-09-12T08:38:57;100825.06;;;20.68;76.14
19112;BME280;9688;51.906;8.376;2022-09-12T08:42:03;100823.97;;;20.71;75.94
19112;BME280;9688;51.906;8.376;2022-09-12T08:45:15;100826.69;;;20.82;75.63
19112;BME280;9688;51.906;8.376;2022-09-12T08:48:24;100823.78;;;20.97;75.28
19112;BME280;9688;51.906;8.376;2022-09-12T08:51:32;100823.28;;;21.03;74.90
19112;BME280;9688;51.906;8.376;2022-09-12T08:54:38;100823.41;;;21.12;74.32
19112;BME280;9688;51.906;8.376;2022-09-12T08:57:43;100822.81;;;21.20;74.17
19112;BME280;9688;51.906;8.376;2022-09-12T09:00:57;100815.94;;;21.27;73.90
19112;BME280;9688;51.906;8.376;2022-09-12T09:04:23;100821.09;;;21.42;73.27
19112;BME280;9688;51.906;8.376;2022-09-12T09:07:49;100824.41;;;21.56;72.47
19112;BME280;9688;51.906;8.376;2022-09-12T09:11:02;100821.78;;;21.66;72.25
19112;BME280;9688;51.906;8.376;2022-09-12T09:14:35;100812.22;;;21.85;72.18
19112;BME280;9688;51.906;8.376;2022-09-12T09:17:56;100806.84;;;22.05;71.38
19112;BME280;9688;51.906;8.376;2022-09-12T09:21:08;100808.91;;;22.13;71.09
19112;BME280;9688;51.906;8.376;2022-09-12T09:24:22;100802.78;;;22.22;70.43
19112;BME280;9688;51.906;8.376;2022-09-12T09:27:30;100805.44;;;22.34;70.29
19112;BME280;9688;51.906;8.376;2022-09-12T09:30:37;100797.41;;;22.43;69.93
19112;BME280;9688;51.906;8.376;2022-09-12T09:33:43;100795.78;;;22.52;69.71
19112;BME280;9688;51.906;8.376;2022-09-12T09:36:59;100793.41;;;22.59;69.74
19112;BME280;9688;51.906;8.376;2022-09-12T09:40:16;100793.75;;;22.75;68.56
19112;BME280;9688;51.906;8.376;2022-09-12T09:43:25;100791.69;;;22.79;68.15
19112;BME280;9688;51.906;8.376;2022-09-12T09:46:31;100792.53;;;22.79;68.09
19112;BME280;9688;51.906;8.376;2022-09-12T09:49:36;100794.22;;;22.80;67.57
19112;BME280;9688;51.906;8.376;2022-09-12T09:52:44;100791.72;;;22.88;67.53
19112;BME280;9688;51.906;8.376;2022-09-12T09:55:52;100786.78;;;22.93;67.21
19112;BME280;9688;51.906;8.376;2022-09-12T09:59:08;100784.56;;;22.99;66.63
19112;BME280;9688;51.906;8.376;2022-09-12T10:02:20;100792.00;;;23.06;66.09
19112;BME280;9688;51.906;8.376;2022-09-12T10:05:32;100781.66;;;23.11;65.71
19112;BME280;9688;51.906;8.376;2022-09-12T10:08:39;100782.78;;;23.19;65.84
19112;BME280;9688;51.906;8.376;2022-09-12T10:14:57;100776.03;;;23.34;65.14
19112;BME280;9688;51.906;8.376;2022-09-12T10:18:03;100775.44;;;23.30;64.93
19112;BME280;9688;51.906;8.376;2022-09-12T10:21:18;100774.31;;;23.33;64.60
19112;BME280;9688;51.906;8.376;2022-09-12T10:28:28;100770.66;;;23.44;65.11
19112;BME280;9688;51.906;8.376;2022-09-12T10:31:42;100757.16;;;23.44;64.67
19112;BME280;9688;51.906;8.376;2022-09-12T10:34:52;100760.31;;;23.49;64.34
19112;BME280;9688;51.906;8.376;2022-09-12T10:38:00;100759.88;;;23.63;64.27
19112;BME280;9688;51.906;8.376;2022-09-12T10:41:08;100756.25;;;23.74;63.94
19112;BME280;9688;51.906;8.376;2022-09-12T10:44:24;100745.47;;;23.84;63.43
19112;BME280;9688;51.906;8.376;2022-09-12T10:47:31;100751.13;;;23.90;63.14
19112;BME280;9688;51.906;8.376;2022-09-12T10:50:39;100747.72;;;23.98;62.56
19112;BME280;9688;51.906;8.376;2022-09-12T10:53:44;100738.47;;;24.10;61.77
19112;BME280;9688;51.906;8.376;2022-09-12T10:57:04;100733.34;;;24.26;61.24
19112;BME280;9688;51.906;8.376;2022-09-12T11:00:14;100734.47;;;24.34;61.37
19112;BME280;9688;51.906;8.376;2022-09-12T11:03:36;100726.06;;;24.37;61.12
19112;BME280;9688;51.906;8.376;2022-09-12T11:06:49;100731.00;;;24.41;60.81
19112;BME280;9688;51.906;8.376;2022-09-12T11:10:08;100726.19;;;24.35;60.28
19112;BME280;9688;51.906;8.376;2022-09-12T11:13:27;100729.66;;;24.18;60.34
19112;BME280;9688;51.906;8.376;2022-09-12T11:16:45;100725.09;;;24.18;60.56
19112;BME280;9688;51.906;8.376;2022-09-12T11:20:12;100723.81;;;24.22;60.10
19112;BME280;9688;51.906;8.376;2022-09-12T11:23:34;100724.38;;;24.26;59.67
19112;BME280;9688;51.906;8.376;2022-09-12T11:26:50;100713.03;;;24.22;59.46
19112;BME280;9688;51.906;8.376;2022-09-12T11:30:06;100709.44;;;24.22;59.03
19112;BME280;9688;51.906;8.376;2022-09-12T11:33:29;100704.91;;;24.22;58.45
19112;BME280;9688;51.906;8.376;2022-09-12T11:36:43;100697.63;;;24.33;58.03
19112;BME280;9688;51.906;8.376;2022-09-12T11:39:53;100696.44;;;24.55;57.66
19112;BME280;9688;51.906;8.376;2022-09-12T11:43:10;100696.44;;;24.64;56.97
19112;BME280;9688;51.906;8.376;2022-09-12T11:46:19;100702.38;;;24.68;56.34
19112;BME280;9688;51.906;8.376;2022-09-12T11:49:34;100701.22;;;24.70;56.22
19112;BME280;9688;51.906;8.376;2022-09-12T11:52:42;100695.28;;;24.67;56.09
19112;BME280;9688;51.906;8.376;2022-09-12T11:55:51;100693.56;;;24.66;55.45
19112;BME280;9688;51.906;8.376;2022-09-12T11:59:00;100687.16;;;24.67;55.27
19112;BME280;9688;51.906;8.376;2022-09-12T12:02:11;100688.56;;;24.71;55.24
19112;BME280;9688;51.906;8.376;2022-09-12T12:05:21;100686.06;;;24.87;54.90
19112;BME280;9688;51.906;8.376;2022-09-12T12:08:29;100680.53;;;25.07;54.23
19112;BME280;9688;51.906;8.376;2022-09-12T12:11:37;100678.25;;;25.12;53.55
19112;BME280;9688;51.906;8.376;2022-09-12T12:14:45;100682.22;;;24.90;53.87
19112;BME280;9688;51.906;8.376;2022-09-12T12:18:05;100668.28;;;24.85;54.41
19112;BME280;9688;51.906;8.376;2022-09-12T12:21:33;100665.97;;;24.90;54.51
19112;BME280;9688;51.906;8.376;2022-09-12T12:32:20;100654.31;;;25.35;53.48
19112;BME280;9688;51.906;8.376;2022-09-12T12:35:40;100655.72;;;25.39;53.04
19112;BME280;9688;51.906;8.376;2022-09-12T12:38:46;100656.41;;;25.23;53.10
19112;BME280;9688;51.906;8.376;2022-09-12T12:41:51;100659.81;;;24.98;53.43
19112;BME280;9688;51.906;8.376;2022-09-12T12:44:57;100653.47;;;24.89;53.42
19112;BME280;9688;51.906;8.376;2022-09-12T12:48:08;100653.94;;;25.02;52.88
19112;BME280;9688;51.906;8.376;2022-09-12T12:51:28;100642.22;;;25.11;52.74
19112;BME280;9688;51.906;8.376;2022-09-12T12:54:50;100643.31;;;25.19;52.51
19112;BME280;9688;51.906;8.376;2022-09-12T12:57:57;100643.09;;;25.30;51.89
19112;BME280;9688;51.906;8.376;2022-09-12T13:01:10;100631.75;;;25.44;51.28
19112;BME280;9688;51.906;8.376;2022-09-12T13:04:21;100626.41;;;25.52;50.65
19112;BME280;9688;51.906;8.376;2022-09-12T13:07:32;100621.59;;;25.64;50.52
19112;BME280;9688;51.906;8.376;2022-09-12T13:10:48;100612.31;;;25.67;50.82
19112;BME280;9688;51.906;8.376;2022-09-12T13:13:57;100611.38;;;25.76;50.82
19112;BME280;9688;51.906;8.376;2022-09-12T13:17:07;100604.56;;;25.72;50.68
19112;BME280;9688;51.906;8.376;2022-09-12T13:20:21;100600.31;;;25.69;50.82
19112;BME280;9688;51.906;8.376;2022-09-12T13:23:29;100600.84;;;25.73;50.20
19112;BME280;9688;51.906;8.376;2022-09-12T13:26:41;100582.94;;;25.80;49.69
19112;BME280;9688;51.906;8.376;2022-09-12T13:30:06;100578.69;;;25.95;49.10
19112;BME280;9688;51.906;8.376;2022-09-12T13:33:18;100573.25;;;25.95;48.69
19112;BME280;9688;51.906;8.376;2022-09-12T13:36:41;100574.94;;;25.96;49.04
19112;BME280;9688;51.906;8.376;2022-09-12T13:39:56;100572.94;;;25.98;49.13
19112;BME280;9688;51.906;8.376;2022-09-12T13:43:15;100567.31;;;25.92;49.31
19112;BME280;9688;51.906;8.376;2022-09-12T13:46:26;100563.44;;;25.94;49.12
19112;BME280;9688;51.906;8.376;2022-09-12T13:49:34;100566.31;;;25.93;48.84
19112;BME280;9688;51.906;8.376;2022-09-12T13:52:46;100561.53;;;25.69;48.78
19112;BME280;9688;51.906;8.376;2022-09-12T13:55:55;100558.69;;;25.70;48.87
19112;BME280;9688;51.906;8.376;2022-09-12T13:59:02;100560.88;;;25.67;48.33
19112;BME280;9688;51.906;8.376;2022-09-12T14:02:18;100564.03;;;25.62;48.03
19112;BME280;9688;51.906;8.376;2022-09-12T14:05:25;100560.81;;;25.58;47.89
19112;BME280;9688;51.906;8.376;2022-09-12T14:08:28;100555.72;;;25.55;47.60
19112;BME280;9688;51.906;8.376;2022-09-12T14:11:36;100537.38;;;25.49;47.99
19112;BME280;9688;51.906;8.376;2022-09-12T14:14:47;100533.28;;;25.45;48.35
19112;BME280;9688;51.906;8.376;2022-09-12T14:17:54;100542.19;;;25.37;48.07
19112;BME280;9688;51.906;8.376;2022-09-12T14:21:19;100533.88;;;25.31;47.96
19112;BME280;9688;51.906;8.376;2022-09-12T14:24:25;100535.16;;;25.45;48.11
19112;BME280;9688;51.906;8.376;2022-09-12T14:27:40;100520.13;;;25.50;47.79
19112;BME280;9688;51.906;8.376;2022-09-12T14:31:02;100525.38;;;25.52;47.66
19112;BME280;9688;51.906;8.376;2022-09-12T14:34:13;100519.81;;;25.53;47.27
19112;BME280;9688;51.906;8.376;2022-09-12T14:37:24;100517.81;;;25.55;47.17
19112;BME280;9688;51.906;8.376;2022-09-12T14:40:30;100511.25;;;25.66;46.84
19112;BME280;9688;51.906;8.376;2022-09-12T14:43:38;100504.06;;;25.75;46.38
19112;BME280;9688;51.906;8.376;2022-09-12T14:46:46;100512.69;;;25.78;46.07
19112;BME280;9688;51.906;8.376;2022-09-12T14:49:52;100506.91;;;25.73;46.23
19112;BME280;9688;51.906;8.376;2022-09-12T14:53:04;100502.50;;;25.72;46.37
19112;BME280;9688;51.906;8.376;2022-09-12T14:56:10;100497.63;;;25.76;46.35
19112;BME280;9688;51.906;8.376;2022-09-12T14:59:30;100499.63;;;25.74;46.14
19112;BME280;9688;51.906;8.376;2022-09-12T15:02:41;100496.72;;;25.67;46.00
19112;BME280;9688;51.906;8.376;2022-09-12T15:05:50;100502.34;;;25.74;45.71
19112;BME280;9688;51.906;8.376;2022-09-12T15:08:58;100500.97;;;25.70;45.90
19112;BME280;9688;51.906;8.376;2022-09-12T15:12:05;100496.03;;;25.65;46.03
19112;BME280;9688;51.906;8.376;2022-09-12T15:15:14;100489.25;;;25.61;46.06
19112;BME280;9688;51.906;8.376;2022-09-12T15:18:22;100486.88;;;25.58;46.31
19112;BME280;9688;51.906;8.376;2022-09-12T15:21:28;100481.75;;;25.55;46.60
19112;BME280;9688;51.906;8.376;2022-09-12T15:24:34;100485.94;;;25.49;46.88
19112;BME280;9688;51.906;8.376;2022-09-12T15:27:41;100483.34;;;25.40;47.29
19112;BME280;9688;51.906;8.376;2022-09-12T15:30:47;100473.69;;;25.37;47.23
19112;BME280;9688;51.906;8.376;2022-09-12T15:33:55;100467.56;;;25.35;47.56
19112;BME280;9688;51.906;8.376;2022-09-12T15:37:01;100471.63;;;25.31;47.92
19112;BME280;9688;51.906;8.376;2022-09-12T15:40:09;100467.38;;;25.28;47.84
19112;BME280;9688;51.906;8.376;2022-09-12T15:43:19;100465.66;;;25.27;47.83
19112;BME280;9688;51.906;8.376;2022-09-12T15:46:24;100467.50;;;25.27;47.39
19112;BME280;9688;51.906;8.376;2022-09-12T15:49:30;100456.88;;;25.25;47.48
19112;BME280;9688;51.906;8.376;2022-09-12T15:52:36;100459.00;;;25.22;48.03
19112;BME280;9688;51.906;8.376;2022-09-12T15:55:42;100456.47;;;25.20;48.49
19112;BME280;9688;51.906;8.376;2022-09-12T15:58:47;100460.88;;;25.21;48.65
19112;BME280;9688;51.906;8.376;2022-09-12T16:01:52;100459.00;;;25.22;48.50
19112;BME280;9688;51.906;8.376;2022-09-12T16:04:59;100446.72;;;25.27;48.12
19112;BME280;9688;51.906;8.376;2022-09-12T16:08:04;100444.56;;;25.31;48.35
19112;BME280;9688;51.906;8.376;2022-09-12T16:11:19;100445.91;;;25.35;48.53
19112;BME280;9688;51.906;8.376;2022-09-12T16:14:25;100441.34;;;25.35;48.55
19112;BME280;9688;51.906;8.376;2022-09-12T16:17:29;100440.44;;;25.27;48.64
19112;BME280;9688;51.906;8.376;2022-09-12T16:20:38;100430.28;;;25.21;48.91
19112;BME280;9688;51.906;8.376;2022-09-12T16:23:46;100429.75;;;25.17;49.23
19112;BME280;9688;51.906;8.376;2022-09-12T16:26:51;100425.78;;;25.11;49.53
19112;BME280;9688;51.906;8.376;2022-09-12T16:29:56;100422.00;;;25.04;49.60
19112;BME280;9688;51.906;8.376;2022-09-12T16:33:02;100421.94;;;24.96;49.61
19112;BME280;9688;51.906;8.376;2022-09-12T16:36:13;100408.53;;;24.86;49.74
19112;BME280;9688;51.906;8.376;2022-09-12T16:39:18;100412.16;;;24.77;50.38
19112;BME280;9688;51.906;8.376;2022-09-12T16:42:22;100411.22;;;24.68;50.33
19112;BME280;9688;51.906;8.376;2022-09-12T16:45:26;100405.75;;;24.60;50.81
19112;BME280;9688;51.906;8.376;2022-09-12T16:48:31;100407.22;;;24.55;50.79
19112;BME280;9688;51.906;8.376;2022-09-12T16:51:38;100405.84;;;24.51;51.11
19112;BME280;9688;51.906;8.376;2022-09-12T16:54:46;100407.84;;;24.48;51.11
19112;BME280;9688;51.906;8.376;2022-09-12T16:57:50;100399.19;;;24.45;51.38
19112;BME280;9688;51.906;8.376;2022-09-12T17:00:58;100392.53;;;24.39;51.97
19112;BME280;9688;51.906;8.376;2022-09-12T17:04:03;100397.00;;;24.31;52.08